Time;durP1;ratioP1;P1;durP2;ratioP2;P2;SDS_P1;SDS_P2;PMS_P1;PMS_P2;Temp;Humidity;BMP_temperature;BMP_pressure;BME280_temperature;BME280_humidity;BME280_pressure;Samples;Min_cycle;Max_cycle;Signal;HPM_P1;HPM_P2
2021/10/04 00:00:45;;;;;;;7.20;5.88;;;;;;;5.57;68.86;94257.69;5072697;28;20472;-47
2021/10/04 00:03:10;;;;;;;7.72;6.47;;;;;;;5.56;68.65;94250.75;5072287;28;20115;-47
2021/10/04 00:05:36;;;;;;;11.50;6.72;;;;;;;5.55;68.87;94245.75;5072244;28;20024;-48
2021/10/04 00:08:01;;;;;;;16.23;7.38;;;;;;;5.52;68.88;94249.50;5072518;28;20024;-49
2021/10/04 00:10:27;;;;;;;12.90;8.48;;;;;;;5.47;69.38;94239.28;5072164;28;20024;-49
2021/10/04 00:12:53;;;;;;;10.73;7.85;;;;;;;5.43;69.40;94247.00;5072435;28;20427;-47
2021/10/04 00:15:20;;;;;;;10.68;8.40;;;;;;;5.35;69.16;94246.72;5072291;28;20025;-49
2021/10/04 00:17:46;;;;;;;11.85;7.50;;;;;;;5.37;69.23;94244.97;5072351;28;20037;-49
2021/10/04 00:20:13;;;;;;;11.18;7.18;;;;;;;5.29;69.08;94248.69;5071439;28;20111;-48
2021/10/04 00:22:40;;;;;;;11.88;7.93;;;;;;;5.33;69.25;94243.72;5071654;28;20049;-51
2021/10/04 00:25:06;;;;;;;11.60;7.82;;;;;;;5.34;69.39;94240.50;5072124;28;20020;-49
2021/10/04 00:27:32;;;;;;;10.75;7.55;;;;;;;5.18;68.44;94210.34;5071975;28;20028;-47
2021/10/04 00:29:58;;;;;;;14.48;8.18;;;;;;;5.30;69.50;94245.50;5072028;28;20403;-50
2021/10/04 00:32:23;;;;;;;11.20;8.02;;;;;;;5.25;68.43;94242.72;5071616;28;20032;-47
2021/10/04 00:34:49;;;;;;;9.63;7.30;;;;;;;5.22;68.70;94238.97;5071881;28;20115;-49
2021/10/04 00:37:15;;;;;;;12.27;7.97;;;;;;;5.16;68.90;94238.22;5071913;28;20476;-50
2021/10/04 00:39:41;;;;;;;9.75;6.88;;;;;;;5.17;69.05;94236.25;5071733;28;20488;-49
2021/10/04 00:42:06;;;;;;;10.60;7.00;;;;;;;5.15;69.18;94225.03;5071390;28;20031;-50
2021/10/04 00:44:31;;;;;;;14.23;7.47;;;;;;;5.00;69.09;94235.47;5071672;28;20024;-46
2021/10/04 00:46:57;;;;;;;14.57;9.70;;;;;;;5.05;69.12;94237.44;5071562;28;20025;-47
2021/10/04 00:49:23;;;;;;;15.93;10.95;;;;;;;4.93;68.45;94227.72;5071644;28;20028;-47
2021/10/04 00:51:49;;;;;;;19.52;12.32;;;;;;;4.99;68.79;94228.47;5071199;28;20028;-46
2021/10/04 00:54:14;;;;;;;18.92;11.82;;;;;;;4.97;68.61;94236.44;5071561;28;20020;-48
2021/10/04 00:56:40;;;;;;;20.15;11.50;;;;;;;4.97;68.84;94228.97;5071101;28;20564;-48
2021/10/04 00:59:05;;;;;;;24.20;12.77;;;;;;;4.85;68.80;94237.66;5071188;28;20032;-48
2021/10/04 01:01:31;;;;;;;20.85;13.05;;;;;;;4.84;69.39;94236.91;5069867;28;20085;-47
2021/10/04 01:04:00;;;;;;;12.30;8.77;;;;;;;4.84;69.11;94233.41;5071300;28;20025;-48
2021/10/04 01:06:27;;;;;;;16.40;10.23;;;;;;;4.86;69.01;94234.41;5070910;28;20503;-49
2021/10/04 01:08:52;;;;;;;14.82;8.95;;;;;;;4.79;69.80;94239.59;5070878;28;20032;-50
2021/10/04 01:11:18;;;;;;;11.77;8.45;;;;;;;4.82;69.64;94233.91;5070885;28;20037;-47
2021/10/04 01:13:44;;;;;;;10.23;7.60;;;;;;;4.77;69.19;94236.59;5070886;28;20158;-48
2021/10/04 01:16:10;;;;;;;14.10;8.02;;;;;;;4.66;69.33;94231.13;5069739;28;20106;-48
2021/10/04 01:18:35;;;;;;;10.75;7.43;;;;;;;4.74;69.08;94232.13;5070769;28;20737;-49
2021/10/04 01:21:02;;;;;;;12.23;7.80;;;;;;;4.74;68.95;94226.66;5070087;28;20036;-48
2021/10/04 01:23:28;;;;;;;13.23;7.93;;;;;;;4.61;69.49;94227.84;5070716;28;20527;-47
2021/10/04 01:25:57;;;;;;;13.82;8.05;;;;;;;4.61;70.10;94227.13;5070901;28;20036;-48
2021/10/04 01:28:23;;;;;;;12.35;7.88;;;;;;;4.56;70.01;94230.56;5070939;28;20032;-47
2021/10/04 01:30:49;;;;;;;10.02;7.68;;;;;;;4.51;69.33;94212.91;5070812;28;20412;-48
2021/10/04 01:33:14;;;;;;;10.43;6.95;;;;;;;4.67;69.06;94224.41;5070882;28;20109;-48
2021/10/04 01:35:40;;;;;;;11.40;6.63;;;;;;;4.61;69.56;94225.13;5070511;28;20480;-50
2021/10/04 01:38:05;;;;;;;10.80;6.78;;;;;;;4.58;69.27;94230.81;5070452;28;20033;-49
2021/10/04 01:40:31;;;;;;;11.52;6.60;;;;;;;4.51;69.31;94232.03;5070310;28;20082;-48
2021/10/04 01:42:57;;;;;;;9.13;6.10;;;;;;;4.41;68.67;94233.50;5070827;28;20028;-46
2021/10/04 01:45:24;;;;;;;6.75;5.40;;;;;;;4.41;69.00;94238.97;5070652;28;20035;-48
2021/10/04 01:47:50;;;;;;;7.40;5.72;;;;;;;4.16;68.68;94206.28;5070659;28;20029;-48
2021/10/04 01:50:16;;;;;;;7.38;5.03;;;;;;;4.27;69.28;94234.41;5070724;28;20050;-49
2021/10/04 01:52:42;;;;;;;7.50;5.45;;;;;;;4.30;69.75;94230.69;5070246;28;20507;-48
2021/10/04 01:55:09;;;;;;;6.88;5.30;;;;;;;4.29;69.55;94229.19;5070641;28;20028;-51
2021/10/04 01:57:34;;;;;;;9.40;5.40;;;;;;;4.36;68.82;94242.41;5069402;28;20463;-48
2021/10/04 02:00:02;;;;;;;10.95;5.47;;;;;;;4.33;69.07;94232.44;5070513;28;20063;-48
2021/10/04 02:02:29;;;;;;;5.47;4.72;;;;;;;4.24;68.19;94245.56;5070577;28;20037;-47
2021/10/04 02:04:54;;;;;;;6.20;4.50;;;;;;;4.18;68.53;94231.84;5070220;28;20516;-46
2021/10/04 02:07:20;;;;;;;7.97;6.20;;;;;;;3.90;69.70;94192.69;5070335;28;20099;-46
2021/10/04 02:09:47;;;;;;;12.15;7.75;;;;;;;4.13;68.74;94240.78;5070168;28;20461;-49
2021/10/04 02:12:14;;;;;;;9.63;6.53;;;;;;;4.11;69.44;94240.53;5070132;28;20085;-50
2021/10/04 02:14:40;;;;;;;9.15;6.35;;;;;;;4.11;69.38;94239.78;5070441;28;20031;-51
2021/10/04 02:17:05;;;;;;;12.45;7.50;;;;;;;4.13;69.03;94237.31;5070437;28;20024;-51
2021/10/04 02:19:30;;;;;;;14.90;7.03;;;;;;;4.05;69.30;94234.25;5069775;28;20024;-50
2021/10/04 02:22:00;;;;;;;9.43;6.70;;;;;;;4.08;68.98;94241.50;5072533;28;20049;-49
2021/10/04 02:24:26;;;;;;;9.43;6.47;;;;;;;4.06;68.95;94245.94;5073008;28;20020;-50
2021/10/04 02:26:51;;;;;;;8.38;5.78;;;;;;;4.02;69.29;94243.47;5074351;28;20025;-48
2021/10/04 02:29:17;;;;;;;8.35;5.68;;;;;;;3.98;68.60;94248.41;5074368;28;20419;-48
2021/10/04 02:31:42;;;;;;;7.70;5.25;;;;;;;3.96;69.33;94241.91;5073982;28;20492;-48
2021/10/04 02:34:07;;;;;;;8.05;5.43;;;;;;;3.94;68.95;94236.94;5073800;28;20024;-49
2021/10/04 02:36:33;;;;;;;8.98;5.50;;;;;;;3.80;68.75;94224.19;5074221;28;20028;-51
2021/10/04 02:38:58;;;;;;;9.10;6.57;;;;;;;3.90;68.94;94236.41;5073823;28;20098;-50
2021/10/04 02:41:24;;;;;;;7.85;6.50;;;;;;;3.91;69.22;94235.19;5072416;28;20029;-49
2021/10/04 02:43:49;;;;;;;11.65;6.13;;;;;;;3.84;68.82;94243.81;5074090;28;20119;-52
2021/10/04 02:46:15;;;;;;;13.27;6.65;;;;;;;3.79;69.21;94245.28;5072406;28;20024;-49
2021/10/04 02:48:40;;;;;;;8.77;5.80;;;;;;;3.74;69.07;94245.25;5073618;28;20084;-49
2021/10/04 02:51:06;;;;;;;9.45;5.25;;;;;;;3.72;69.48;94244.97;5072714;28;20078;-51
2021/10/04 02:53:31;;;;;;;6.55;5.32;;;;;;;3.67;69.77;94240.97;5073523;28;20086;-51
2021/10/04 02:55:57;;;;;;;8.05;5.05;;;;;;;3.69;69.42;94245.94;5073778;28;20028;-49
2021/10/04 02:58:23;;;;;;;6.45;5.13;;;;;;;3.68;68.80;94245.19;5073604;28;20028;-49
2021/10/04 03:00:48;;;;;;;14.63;5.45;;;;;;;3.67;69.19;94240.22;5073724;28;20028;-49
2021/10/04 03:03:13;;;;;;;5.53;4.65;;;;;;;3.62;68.80;94252.59;5073611;28;20031;-50
2021/10/04 03:05:39;;;;;;;9.38;5.03;;;;;;;3.47;69.07;94253.94;5073536;28;20020;-50
2021/10/04 03:08:05;;;;;;;9.18;5.35;;;;;;;3.50;69.27;94259.19;5073314;28;20397;-49
2021/10/04 03:10:32;;;;;;;6.00;4.78;;;;;;;3.45;69.86;94259.13;5073187;28;20031;-51
2021/10/04 03:12:57;;;;;;;5.00;4.25;;;;;;;3.43;70.31;94258.88;5073188;28;20027;-49
2021/10/04 03:15:23;;;;;;;6.63;4.63;;;;;;;3.45;68.97;94250.94;5073417;28;20036;-48
2021/10/04 03:17:48;;;;;;;6.80;4.38;;;;;;;3.44;68.63;94254.91;5073119;28;20085;-50
2021/10/04 03:20:14;;;;;;;5.55;4.90;;;;;;;3.46;68.71;94255.19;5072841;28;20028;-52
2021/10/04 03:22:39;;;;;;;5.00;3.90;;;;;;;3.47;68.66;94257.44;5072961;28;20052;-50
2021/10/04 03:25:05;;;;;;;5.28;4.45;;;;;;;3.26;68.99;94230.69;5073228;28;20474;-49
2021/10/04 03:27:31;;;;;;;6.00;4.03;;;;;;;3.30;69.20;94242.13;5072894;28;20035;-50
2021/10/04 03:29:56;;;;;;;6.88;5.18;;;;;;;3.25;69.11;94240.13;5071912;28;20028;-52
2021/10/04 03:32:22;;;;;;;8.05;4.22;;;;;;;3.27;69.04;94252.03;5072598;28;20401;-50
2021/10/04 03:34:47;;;;;;;6.95;4.85;;;;;;;3.26;68.97;94252.50;5072845;28;20399;-50
2021/10/04 03:37:15;;;;;;;7.10;5.03;;;;;;;3.16;69.49;94235.56;5073086;28;20021;-49
2021/10/04 03:39:41;;;;;;;10.70;5.78;;;;;;;3.22;69.10;94239.09;5071507;28;20527;-52
2021/10/04 03:42:06;;;;;;;11.52;5.90;;;;;;;3.27;69.44;94245.84;5072671;28;20033;-50
2021/10/04 03:44:32;;;;;;;7.93;5.47;;;;;;;3.27;69.74;94246.56;5072543;28;20032;-52
2021/10/04 03:46:57;;;;;;;9.35;6.53;;;;;;;3.26;69.81;94249.78;5072710;28;20032;-48
2021/10/04 03:49:23;;;;;;;11.82;7.15;;;;;;;3.19;69.66;94253.69;5072547;28;20075;-51
2021/10/04 03:51:48;;;;;;;25.08;13.30;;;;;;;3.18;70.15;94248.72;5072526;28;20028;-49
2021/10/04 03:54:14;;;;;;;29.02;16.70;;;;;;;3.18;69.83;94246.00;5072722;28;20037;-51
2021/10/04 03:56:39;;;;;;;29.60;14.77;;;;;;;3.20;69.66;94251.72;5072768;28;20415;-49
2021/10/04 03:59:04;;;;;;;18.98;12.15;;;;;;;3.20;69.07;94251.72;5072659;28;20024;-49
2021/10/04 04:01:30;;;;;;;9.85;7.50;;;;;;;3.13;69.45;94252.13;5072671;28;20420;-50
2021/10/04 04:03:55;;;;;;;12.55;8.50;;;;;;;3.10;69.24;94245.66;5072273;28;20028;-49
2021/10/04 04:06:21;;;;;;;11.05;7.68;;;;;;;3.18;68.95;94256.91;5072091;28;20025;-51
2021/10/04 04:08:46;;;;;;;15.90;9.88;;;;;;;3.06;68.84;94251.34;5072603;28;20024;-50
2021/10/04 04:11:12;;;;;;;11.57;8.35;;;;;;;3.12;69.51;94253.38;5072047;28;20091;-48
2021/10/04 04:13:37;;;;;;;11.55;7.90;;;;;;;3.05;69.13;94252.56;5072439;28;20024;-49
2021/10/04 04:16:04;;;;;;;12.50;8.20;;;;;;;3.01;69.04;94254.03;5071615;28;20020;-50
2021/10/04 04:18:31;;;;;;;10.25;7.90;;;;;;;2.96;70.00;94258.19;5071007;28;20020;-51
2021/10/04 04:20:56;;;;;;;15.77;10.00;;;;;;;2.94;70.00;94268.06;5071809;28;20105;-50
2021/10/04 04:23:22;;;;;;;11.02;7.90;;;;;;;2.65;68.99;94219.91;5071906;28;20052;-50
2021/10/04 04:25:47;;;;;;;12.43;8.07;;;;;;;2.95;69.19;94262.13;5072143;28;20031;-51
2021/10/04 04:28:13;;;;;;;11.18;7.40;;;;;;;2.87;69.48;94241.22;5071650;28;20099;-49
2021/10/04 04:30:38;;;;;;;18.65;8.50;;;;;;;2.97;68.59;94256.19;5071777;28;20021;-49
2021/10/04 04:33:03;;;;;;;14.65;8.10;;;;;;;2.92;68.87;94246.72;5071930;28;20027;-51
2021/10/04 04:35:29;;;;;;;11.85;8.35;;;;;;;3.00;69.35;94258.72;5071615;28;20013;-51
2021/10/04 04:37:54;;;;;;;16.10;11.00;;;;;;;2.97;69.11;94262.41;5071727;28;20020;-51
2021/10/04 04:40:20;;;;;;;12.98;9.38;;;;;;;2.94;69.37;94273.53;5071566;28;20500;-50
2021/10/04 04:42:46;;;;;;;14.73;10.38;;;;;;;2.87;69.39;94266.50;5071513;28;20480;-49
2021/10/04 04:45:14;;;;;;;16.08;10.57;;;;;;;2.93;69.47;94277.47;5070744;28;20106;-51
2021/10/04 04:47:40;;;;;;;16.15;10.43;;;;;;;2.89;69.65;94274.19;5071405;28;20058;-50
2021/10/04 04:50:07;;;;;;;13.52;9.93;;;;;;;2.87;70.69;94274.69;5071680;28;20028;-50
2021/10/04 04:52:32;;;;;;;14.27;10.68;;;;;;;2.89;70.21;94268.75;5071561;28;20027;-50
2021/10/04 04:54:58;;;;;;;16.55;10.63;;;;;;;2.83;70.44;94271.44;5071575;28;20620;-50
2021/10/04 04:57:23;;;;;;;18.45;14.40;;;;;;;2.67;70.46;94252.88;5071194;28;20024;-49
2021/10/04 04:59:49;;;;;;;19.17;12.82;;;;;;;2.78;69.79;94274.84;5071487;28;20032;-49
2021/10/04 05:02:14;;;;;;;19.85;12.52;;;;;;;2.67;70.24;94254.84;5071243;28;20099;-49
2021/10/04 05:04:40;;;;;;;16.35;11.93;;;;;;;2.85;70.29;94285.31;5069893;28;20029;-49
2021/10/04 05:07:05;;;;;;;27.23;14.77;;;;;;;2.55;70.16;94240.38;5071287;28;20017;-50
2021/10/04 05:09:31;;;;;;;63.83;31.05;;;;;;;2.87;70.40;94285.59;5071318;28;20024;-51
2021/10/04 05:11:56;;;;;;;66.68;33.88;;;;;;;2.94;70.35;94290.66;5070950;28;20082;-50
2021/10/04 05:14:21;;;;;;;77.22;35.67;;;;;;;2.93;70.69;94286.41;5070872;28;20037;-51
2021/10/04 05:16:47;;;;;;;43.65;21.13;;;;;;;3.00;70.03;94290.69;5070881;28;20074;-50
2021/10/04 05:19:13;;;;;;;32.45;20.17;;;;;;;2.99;71.27;94283.72;5070434;28;20032;-49
2021/10/04 05:21:39;;;;;;;36.63;21.42;;;;;;;3.05;71.16;94279.81;5070721;28;20051;-52
2021/10/04 05:24:05;;;;;;;28.00;16.35;;;;;;;3.00;71.32;94269.63;5070620;28;20431;-53
2021/10/04 05:26:30;;;;;;;34.28;19.45;;;;;;;3.11;71.41;94279.91;5070851;28;20024;-51
2021/10/04 05:28:56;;;;;;;26.25;17.55;;;;;;;3.13;71.39;94284.88;5070922;28;20047;-51
2021/10/04 05:31:21;;;;;;;38.95;25.20;;;;;;;3.20;71.16;94277.03;5070880;28;20062;-48
2021/10/04 05:33:47;;;;;;;43.40;29.70;;;;;;;3.25;71.05;94286.50;5070924;28;20020;-50
2021/10/04 05:36:13;;;;;;;36.03;24.23;;;;;;;3.34;71.60;94281.63;5070843;28;20058;-51
2021/10/04 05:38:38;;;;;;;25.48;19.10;;;;;;;3.41;71.68;94274.97;5070599;28;20423;-51
2021/10/04 05:41:04;;;;;;;28.38;17.95;;;;;;;3.48;71.67;94274.56;5070456;28;20024;-49
2021/10/04 05:43:32;;;;;;;37.30;23.13;;;;;;;3.60;71.40;94278.88;5070511;28;20112;-49
2021/10/04 05:45:57;;;;;;;40.13;24.55;;;;;;;3.65;72.33;94283.66;5070682;28;20028;-49
2021/10/04 05:48:23;;;;;;;60.97;32.42;;;;;;;3.68;72.82;94280.69;5069676;28;20515;-50
2021/10/04 05:50:49;;;;;;;60.80;30.42;;;;;;;3.71;73.62;94274.25;5070146;28;20029;-49
2021/10/04 05:53:15;;;;;;;83.53;38.10;;;;;;;3.81;73.94;94267.38;5070645;28;20466;-48
2021/10/04 05:55:41;;;;;;;49.25;25.30;;;;;;;3.94;73.82;94272.47;5069687;28;20028;-49
2021/10/04 05:58:06;;;;;;;61.88;30.85;;;;;;;4.05;73.72;94275.25;5070601;28;20484;-51
2021/10/04 06:00:31;;;;;;;60.45;27.25;;;;;;;3.81;74.19;94231.88;5070541;28;20027;-50
2021/10/04 06:02:57;;;;;;;33.05;19.98;;;;;;;4.33;74.11;94278.91;5070318;28;20111;-50
2021/10/04 06:05:22;;;;;;;29.13;16.27;;;;;;;4.50;74.18;94274.28;5070380;28;20032;-49
2021/10/04 06:07:48;;;;;;;23.52;16.02;;;;;;;4.85;72.88;94278.69;5070513;28;20021;-48
2021/10/04 06:10:15;;;;;;;21.70;14.32;;;;;;;5.19;72.53;94280.28;5070445;28;20024;-49
2021/10/04 06:12:41;;;;;;;24.70;15.55;;;;;;;5.79;70.85;94279.66;5070494;28;20082;-48
2021/10/04 06:15:08;;;;;;;30.52;14.77;;;;;;;6.81;68.01;94282.53;5070475;28;20024;-50
2021/10/04 06:17:34;;;;;;;38.85;16.95;;;;;;;7.96;64.29;94280.41;5070109;28;20024;-49
2021/10/04 06:19:59;;;;;;;42.90;17.27;;;;;;;9.18;59.91;94259.94;5069868;28;20055;-49
2021/10/04 06:22:25;;;;;;;29.98;18.05;;;;;;;10.68;55.33;94282.50;5069931;28;20078;-49
2021/10/04 06:24:51;;;;;;;30.10;18.13;;;;;;;11.90;52.02;94270.50;5070339;28;20020;-48
2021/10/04 06:27:16;;;;;;;24.50;14.45;;;;;;;13.15;48.64;94271.16;5070350;28;20089;-46
2021/10/04 06:29:42;;;;;;;29.38;16.35;;;;;;;14.32;46.04;94272.72;5070349;28;20171;-46
2021/10/04 06:32:09;;;;;;;39.80;16.42;;;;;;;15.26;43.10;94276.41;5070270;28;20028;-46
2021/10/04 06:34:34;;;;;;;17.75;12.73;;;;;;;16.36;41.03;94268.72;5070221;28;20029;-47
2021/10/04 06:37:00;;;;;;;28.17;12.75;;;;;;;17.28;39.05;94273.03;5070291;28;20028;-47
2021/10/04 06:39:25;;;;;;;9.85;8.02;;;;;;;18.10;37.33;94276.22;5070284;28;20032;-47
2021/10/04 06:41:51;;;;;;;10.32;7.75;;;;;;;18.87;36.43;94272.50;5070121;28;20442;-46
2021/10/04 06:44:16;;;;;;;9.02;7.78;;;;;;;19.29;35.02;94252.59;5070169;28;20028;-46
2021/10/04 06:46:42;;;;;;;7.95;7.07;;;;;;;20.23;33.97;94281.25;5069938;28;20028;-49
2021/10/04 06:49:07;;;;;;;6.93;6.22;;;;;;;20.83;32.94;94267.94;5069221;28;20021;-46
2021/10/04 06:51:33;;;;;;;10.63;7.05;;;;;;;21.49;32.06;94273.81;5069805;28;20039;-46
2021/10/04 06:53:58;;;;;;;8.32;7.05;;;;;;;22.13;31.23;94271.72;5070093;28;20036;-47
2021/10/04 06:56:24;;;;;;;10.25;7.50;;;;;;;22.78;30.28;94282.19;5070016;28;20392;-46
2021/10/04 06:58:50;;;;;;;11.10;8.30;;;;;;;23.54;29.28;94281.22;5069744;28;20020;-48
2021/10/04 07:01:16;;;;;;;17.83;10.27;;;;;;;23.94;28.33;94261.03;5069627;28;20120;-47
2021/10/04 07:03:41;;;;;;;15.95;14.07;;;;;;;24.56;27.17;94282.88;5069718;28;20032;-48
2021/10/04 07:06:06;;;;;;;15.52;13.48;;;;;;;25.48;26.70;94275.88;5069734;28;20033;-45
2021/10/04 07:08:32;;;;;;;19.45;14.48;;;;;;;26.05;25.73;94268.16;5072868;28;20136;-47
2021/10/04 07:10:57;;;;;;;19.30;15.52;;;;;;;26.75;24.75;94260.28;5073554;28;20024;-46
2021/10/04 07:13:23;;;;;;;14.77;12.57;;;;;;;27.07;24.06;94257.47;5073485;28;20439;-46
2021/10/04 07:15:48;;;;;;;12.38;11.13;;;;;;;27.52;22.92;94250.34;5073271;28;20484;-48
2021/10/04 07:18:14;;;;;;;11.90;8.68;;;;;;;28.19;22.18;94256.03;5073551;28;20029;-45
2021/10/04 07:20:40;;;;;;;10.23;8.80;;;;;;;28.49;21.91;94243.06;5073023;28;20032;-47
2021/10/04 07:23:05;;;;;;;9.20;8.20;;;;;;;29.57;20.75;94245.75;5072848;28;20416;-46
2021/10/04 07:25:32;;;;;;;8.93;6.53;;;;;;;30.39;19.82;94262.16;5073288;28;20694;-48
2021/10/04 07:27:58;;;;;;;11.25;6.57;;;;;;;30.31;19.75;94267.59;5073299;28;20024;-47
2021/10/04 07:30:23;;;;;;;9.90;6.55;;;;;;;31.03;19.15;94258.56;5072925;28;20032;-49
2021/10/04 07:32:49;;;;;;;4.78;3.58;;;;;;;31.04;18.19;94257.16;5072526;28;20021;-48
2021/10/04 07:35:15;;;;;;;5.72;4.50;;;;;;;31.43;17.90;94265.47;5072792;28;20056;-47
2021/10/04 07:37:40;;;;;;;10.23;7.18;;;;;;;31.50;17.71;94245.66;5073076;28;20032;-49
2021/10/04 07:40:07;;;;;;;7.28;5.40;;;;;;;30.95;19.16;94255.44;5073186;28;20398;-48
2021/10/04 07:42:33;;;;;;;8.00;5.68;;;;;;;30.32;20.10;94257.69;5072674;28;20554;-46
2021/10/04 07:44:58;;;;;;;6.82;5.05;;;;;;;30.13;20.21;94264.09;5072701;28;20032;-46
2021/10/04 07:47:24;;;;;;;7.70;4.90;;;;;;;31.03;19.34;94250.00;5072814;28;20024;-48
2021/10/04 07:49:50;;;;;;;6.55;4.28;;;;;;;31.63;18.13;94245.34;5072907;28;20028;-49
2021/10/04 07:52:15;;;;;;;5.20;3.97;;;;;;;32.16;18.41;94251.06;5072524;28;20053;-48
2021/10/04 07:54:41;;;;;;;7.85;4.60;;;;;;;31.43;17.81;94210.50;5072818;28;20031;-49
2021/10/04 07:57:06;;;;;;;6.80;5.15;;;;;;;31.04;19.00;94242.16;5072367;28;20020;-48
2021/10/04 07:59:32;;;;;;;5.10;2.80;;;;;;;30.99;19.34;94238.44;5072625;28;20032;-47
2021/10/04 08:01:57;;;;;;;6.88;3.45;;;;;;;30.90;18.87;94236.03;5072677;28;20025;-46
2021/10/04 08:04:23;;;;;;;13.50;3.95;;;;;;;31.29;18.54;94244.34;5072631;28;20055;-49
2021/10/04 08:06:49;;;;;;;5.75;2.97;;;;;;;32.31;18.05;94237.91;5072217;28;20055;-47
2021/10/04 08:09:14;;;;;;;9.32;3.15;;;;;;;32.48;16.82;94242.63;5072228;28;20020;-48
2021/10/04 08:11:40;;;;;;;5.05;2.55;;;;;;;32.95;16.60;94244.44;5072315;28;20078;-48
2021/10/04 08:14:05;;;;;;;5.95;2.17;;;;;;;33.30;16.24;94249.56;5070936;28;20040;-48
2021/10/04 08:16:31;;;;;;;3.80;2.45;;;;;;;32.92;17.20;94240.81;5072474;28;20024;-45
2021/10/04 08:19:26;;;;;;;3.20;2.33;;;;;;;31.26;17.72;94237.09;5070981;28;20033;-46
2021/10/04 08:21:52;;;;;;;2.30;2.10;;;;;;;31.78;18.52;94235.03;5071832;28;20581;-46
2021/10/04 08:24:17;;;;;;;5.75;2.10;;;;;;;32.31;17.36;94226.47;5071906;28;20028;-47
2021/10/04 08:26:43;;;;;;;11.10;2.58;;;;;;;32.17;16.87;94226.09;5071719;28;20043;-47
2021/10/04 08:29:08;;;;;;;3.90;2.35;;;;;;;31.39;16.97;94224.63;5072140;28;20078;-46
2021/10/04 08:31:34;;;;;;;4.80;2.00;;;;;;;31.69;17.32;94225.50;5072077;28;20400;-48
2021/10/04 08:34:01;;;;;;;5.68;2.15;;;;;;;31.62;17.55;94226.75;5072054;28;20503;-48
2021/10/04 08:36:28;;;;;;;2.65;1.80;;;;;;;31.40;17.29;94221.13;5071693;28;20547;-46
2021/10/04 08:38:54;;;;;;;4.05;2.08;;;;;;;31.42;17.42;94195.50;5071555;28;20029;-47
2021/10/04 08:41:21;;;;;;;2.53;1.90;;;;;;;32.26;16.36;94218.44;5071610;28;20039;-46
2021/10/04 08:43:52;;;;;;;4.40;1.88;;;;;;;32.40;16.78;94219.53;5071757;28;20028;-46
2021/10/04 08:46:18;;;;;;;5.82;2.20;;;;;;;33.03;16.12;94213.16;5071589;28;20090;-46
2021/10/04 08:48:45;;;;;;;4.50;1.98;;;;;;;33.74;15.59;94215.41;5071377;28;20025;-48
2021/10/04 08:51:11;;;;;;;4.18;2.20;;;;;;;34.27;15.04;94209.22;5071719;28;20085;-46
2021/10/04 08:53:40;;;;;;;3.00;1.90;;;;;;;34.44;14.92;94206.63;5071232;28;20028;-46
2021/10/04 08:56:06;;;;;;;2.92;1.70;;;;;;;35.35;13.16;94195.09;5070683;28;20028;-47
2021/10/04 08:58:32;;;;;;;7.13;2.35;;;;;;;35.09;14.84;94202.66;5071587;28;20114;-47
2021/10/04 09:01:02;;;;;;;3.25;2.10;;;;;;;32.93;16.11;94207.22;5071237;28;20085;-47
2021/10/04 09:03:45;;;;;;;5.30;2.40;;;;;;;33.00;16.05;94203.09;5071218;28;20089;-45
2021/10/04 09:06:27;;;;;;;2.75;2.03;;;;;;;33.39;15.73;94201.78;5071459;28;20032;-46
2021/10/04 09:08:58;;;;;;;3.20;2.38;;;;;;;34.56;15.27;94195.38;5071094;28;20052;-48
2021/10/04 09:11:35;;;;;;;3.60;2.45;;;;;;;35.23;14.07;94194.22;5071004;28;20518;-46
2021/10/04 09:14:12;;;;;;;5.38;2.33;;;;;;;35.16;14.20;94207.78;5071008;28;20043;-46
2021/10/04 09:16:53;;;;;;;2.85;2.55;;;;;;;35.91;13.48;94200.78;5071031;28;20017;-46
2021/10/04 09:19:31;;;;;;;4.13;2.45;;;;;;;35.42;13.58;94202.38;5070839;28;20052;-46
2021/10/04 09:22:13;;;;;;;;;;;;;;;36.35;12.82;94192.63;5071185;28;20580;-46
2021/10/04 09:24:47;;;;;;;2.25;2.05;;;;;;;36.80;12.15;94190.13;5071039;28;19931;-46
2021/10/04 09:27:46;;;;;;;3.20;2.40;;;;;;;36.56;12.57;94184.91;5071010;28;20465;-46
2021/10/04 09:30:27;;;;;;;4.40;2.47;;;;;;;36.23;13.42;94186.06;5061679;28;20063;-48
2021/10/04 09:32:53;;;;;;;5.38;2.40;;;;;;;36.22;13.94;94188.22;5070654;28;20488;-45
2021/10/04 09:35:27;;;;;;;3.80;2.63;;;;;;;36.28;13.21;94179.63;5070595;28;20484;-47
2021/10/04 09:38:14;;;;;;;2.65;1.85;;;;;;;36.39;12.92;94174.69;5070722;28;20026;-45
2021/10/04 09:40:48;;;;;;;3.30;2.00;;;;;;;36.61;12.98;94169.13;5070908;28;20106;-45
2021/10/04 09:43:26;;;;;;;3.90;1.90;;;;;;;36.65;13.52;94166.28;5070551;28;20032;-46
2021/10/04 09:46:06;;;;;;;2.67;2.28;;;;;;;36.05;12.46;94174.38;5070699;28;20020;-46
2021/10/04 09:48:32;;;;;;;2.33;2.05;;;;;;;35.53;13.51;94172.38;5069499;28;20559;-47
2021/10/04 09:51:15;;;;;;;5.18;2.22;;;;;;;36.06;14.32;94165.03;5070402;28;20035;-45
2021/10/04 09:53:40;;;;;;;2.53;1.95;;;;;;;36.32;13.76;94158.81;5070771;28;20033;-45
2021/10/04 09:56:05;;;;;;;3.67;2.08;;;;;;;36.79;13.18;94162.78;5070276;28;20381;-45
2021/10/04 09:58:32;;;;;;;5.43;2.55;;;;;;;37.05;13.80;94162.97;5070350;28;20103;-46
2021/10/04 10:01:03;;;;;;;4.10;1.67;;;;;;;37.07;12.11;94166.59;5070529;28;20044;-45
2021/10/04 10:03:41;;;;;;;3.17;2.05;;;;;;;36.68;13.02;94161.28;5070640;28;20024;-45
2021/10/04 10:06:07;;;;;;;2.88;1.83;;;;;;;37.17;12.93;94149.34;5070094;28;20075;-45
2021/10/04 10:08:32;;;;;;;3.00;2.45;;;;;;;37.19;12.49;94152.25;5070508;28;20547;-45
2021/10/04 10:11:00;;;;;;;3.35;2.67;;;;;;;37.64;12.51;94149.56;5070504;28;20032;-46
2021/10/04 10:13:27;;;;;;;2.17;1.98;;;;;;;36.97;13.30;94146.38;5070505;28;20054;-45
2021/10/04 10:16:09;;;;;;;2.78;2.00;;;;;;;37.35;12.73;94150.91;5070500;28;20494;-47
2021/10/04 10:18:44;;;;;;;2.65;2.00;;;;;;;36.19;13.52;94140.03;5069229;28;20055;-45
2021/10/04 10:21:21;;;;;;;3.30;1.83;;;;;;;34.47;13.80;94145.03;5069096;28;20027;-45
2021/10/04 10:23:59;;;;;;;2.58;1.70;;;;;;;34.49;14.55;94133.56;5070413;28;20051;-44
2021/10/04 10:26:27;;;;;;;2.30;1.88;;;;;;;34.77;13.87;94129.00;5069737;28;20036;-47
2021/10/04 10:29:13;;;;;;;4.05;1.98;;;;;;;34.95;13.93;94129.25;5068879;28;20028;-46
2021/10/04 10:31:50;;;;;;;16.52;6.10;;;;;;;35.41;14.65;94126.25;5070037;28;20035;-45
2021/10/04 10:34:34;;;;;;;7.67;3.17;;;;;;;35.80;14.66;94122.38;5070025;28;20024;-45
2021/10/04 10:37:00;;;;;;;14.65;8.07;;;;;;;36.00;13.51;94124.75;5069978;28;20418;-45
2021/10/04 10:39:53;;;;;;;6.05;3.75;;;;;;;35.65;13.82;94135.16;5070162;28;20392;-45
2021/10/04 10:42:35;;;;;;;2.33;1.95;;;;;;;35.38;13.71;94124.06;5071474;28;20055;-44
2021/10/04 10:45:00;;;;;;;5.50;3.05;;;;;;;36.08;13.91;94124.09;5074161;28;20102;-45
2021/10/04 10:47:37;;;;;;;3.58;2.30;;;;;;;36.26;13.49;94122.09;5073963;28;20549;-45
2021/10/04 10:50:12;;;;;;;5.78;2.00;;;;;;;36.03;13.33;94108.25;5074081;28;20028;-45
2021/10/04 10:53:04;;;;;;;2.78;2.00;;;;;;;36.13;12.58;94111.94;5073960;28;20039;-45
2021/10/04 10:55:31;;;;;;;4.53;1.95;;;;;;;36.14;13.58;94104.75;5073271;28;20048;-45
2021/10/04 10:58:09;;;;;;;9.93;3.13;;;;;;;36.13;13.53;94074.56;5073542;28;20029;-44
2021/10/04 11:00:37;;;;;;;25.25;4.57;;;;;;;36.45;13.58;94097.81;5073609;28;20403;-45
2021/10/04 11:03:18;;;;;;;3.75;2.92;;;;;;;36.50;12.69;94099.28;5073447;28;20403;-45
2021/10/04 11:05:44;;;;;;;6.05;2.40;;;;;;;36.86;13.11;94093.03;5072302;28;20036;-46
2021/10/04 11:08:11;;;;;;;4.32;1.75;;;;;;;37.05;13.27;94094.59;5073271;28;20090;-44
2021/10/04 11:10:49;;;;;;;2.35;1.80;;;;;;;37.08;13.15;94087.41;5073336;28;20115;-45
2021/10/04 11:13:30;;;;;;;4.17;2.03;;;;;;;36.89;12.96;94096.66;5073295;28;20035;-45
2021/10/04 11:15:58;;;;;;;4.70;2.40;;;;;;;36.26;13.02;94078.97;5073502;28;20037;-45
2021/10/04 11:18:24;;;;;;;2.92;1.90;;;;;;;36.27;12.77;94083.28;5072950;28;20120;-45
2021/10/04 11:21:04;;;;;;;1.90;1.77;;;;;;;35.68;12.58;94084.91;5073083;28;20465;-44
2021/10/04 11:23:30;;;;;;;1.67;1.58;;;;;;;34.91;13.83;94089.00;5073173;28;20036;-45
2021/10/04 11:25:56;;;;;;;2.30;1.90;;;;;;;35.20;13.46;94081.50;5072898;28;20031;-45
2021/10/04 11:28:37;;;;;;;3.67;2.00;;;;;;;34.83;13.83;94085.31;5073377;28;20021;-45
2021/10/04 11:31:13;;;;;;;3.67;1.70;;;;;;;34.89;14.42;94062.47;5072965;28;20099;-44
2021/10/04 11:33:49;;;;;;;7.18;2.05;;;;;;;34.78;14.29;94081.66;5072916;28;20025;-45